sensor_id;sensor_type;location;lat;lon;timestamp;P1;durP1;ratioP1;P2;durP2;ratioP2
72325;SDS011;60278;47.980;18.780;2022-08-19T00:01:10;8.98;;;5.80;;
72325;SDS011;60278;47.980;18.780;2022-08-19T00:04:42;12.32;;;5.30;;
72325;SDS011;60278;47.980;18.780;2022-08-19T00:08:13;13.77;;;5.60;;
72325;SDS011;60278;47.980;18.780;2022-08-19T00:11:44;10.27;;;6.00;;
72325;SDS011;60278;47.980;18.780;2022-08-19T00:15:18;8.53;;;5.27;;
72325;SDS011;60278;47.980;18.780;2022-08-19T00:18:51;8.57;;;6.03;;
72325;SDS011;60278;47.980;18.780;2022-08-19T00:22:22;12.85;;;5.18;;
72325;SDS011;60278;47.980;18.780;2022-08-19T00:25:53;10.70;;;5.35;;
72325;SDS011;60278;47.980;18.780;2022-08-19T00:29:24;8.83;;;5.70;;
72325;SDS011;60278;47.980;18.780;2022-08-19T00:32:56;12.87;;;5.63;;
72325;SDS011;60278;47.980;18.780;2022-08-19T00:36:27;10.63;;;5.43;;
72325;SDS011;60278;47.980;18.780;2022-08-19T00:39:59;11.18;;;5.43;;
72325;SDS011;60278;47.980;18.780;2022-08-19T00:43:30;16.52;;;5.80;;
72325;SDS011;60278;47.980;18.780;2022-08-19T00:47:02;11.80;;;5.27;;
72325;SDS011;60278;47.980;18.780;2022-08-19T00:50:33;11.87;;;5.60;;
72325;SDS011;60278;47.980;18.780;2022-08-19T00:54:04;9.55;;;5.15;;
72325;SDS011;60278;47.980;18.780;2022-08-19T00:57:37;8.93;;;5.35;;
72325;SDS011;60278;47.980;18.780;2022-08-19T01:01:10;7.97;;;5.25;;
72325;SDS011;60278;47.980;18.780;2022-08-19T01:04:41;9.47;;;5.57;;
72325;SDS011;60278;47.980;18.780;2022-08-19T01:08:13;10.73;;;6.23;;
72325;SDS011;60278;47.980;18.780;2022-08-19T01:11:45;9.90;;;5.63;;
72325;SDS011;60278;47.980;18.780;2022-08-19T01:15:20;9.73;;;5.65;;
72325;SDS011;60278;47.980;18.780;2022-08-19T01:18:55;8.32;;;5.85;;
72325;SDS011;60278;47.980;18.780;2022-08-19T01:22:29;9.53;;;6.00;;
72325;SDS011;60278;47.980;18.780;2022-08-19T01:26:03;10.10;;;6.20;;
72325;SDS011;60278;47.980;18.780;2022-08-19T01:29:36;9.93;;;5.80;;
72325;SDS011;60278;47.980;18.780;2022-08-19T01:33:08;9.27;;;6.40;;
72325;SDS011;60278;47.980;18.780;2022-08-19T01:36:41;13.13;;;5.97;;
72325;SDS011;60278;47.980;18.780;2022-08-19T01:40:18;10.97;;;6.27;;
72325;SDS011;60278;47.980;18.780;2022-08-19T01:43:51;8.60;;;6.30;;
72325;SDS011;60278;47.980;18.780;2022-08-19T01:47:23;11.93;;;6.13;;
72325;SDS011;60278;47.980;18.780;2022-08-19T01:50:54;10.93;;;6.38;;
72325;SDS011;60278;47.980;18.780;2022-08-19T01:54:26;9.35;;;5.95;;
72325;SDS011;60278;47.980;18.780;2022-08-19T01:57:58;9.40;;;5.83;;
72325;SDS011;60278;47.980;18.780;2022-08-19T02:01:32;10.13;;;6.28;;
72325;SDS011;60278;47.980;18.780;2022-08-19T02:05:06;11.65;;;6.85;;
72325;SDS011;60278;47.980;18.780;2022-08-19T02:08:38;10.13;;;6.47;;
72325;SDS011;60278;47.980;18.780;2022-08-19T02:12:10;12.90;;;6.20;;
72325;SDS011;60278;47.980;18.780;2022-08-19T02:15:42;12.40;;;5.93;;
72325;SDS011;60278;47.980;18.780;2022-08-19T02:19:13;9.82;;;6.45;;
72325;SDS011;60278;47.980;18.780;2022-08-19T02:22:44;13.13;;;6.43;;
72325;SDS011;60278;47.980;18.780;2022-08-19T02:26:16;8.98;;;6.35;;
72325;SDS011;60278;47.980;18.780;2022-08-19T02:29:48;11.83;;;6.43;;
72325;SDS011;60278;47.980;18.780;2022-08-19T02:33:20;11.80;;;6.28;;
72325;SDS011;60278;47.980;18.780;2022-08-19T02:36:51;10.38;;;6.28;;
72325;SDS011;60278;47.980;18.780;2022-08-19T02:40:22;11.23;;;6.60;;
72325;SDS011;60278;47.980;18.780;2022-08-19T02:43:54;12.20;;;6.60;;
72325;SDS011;60278;47.980;18.780;2022-08-19T02:47:26;9.93;;;6.80;;
72325;SDS011;60278;47.980;18.780;2022-08-19T02:50:57;12.80;;;6.22;;
72325;SDS011;60278;47.980;18.780;2022-08-19T02:54:30;10.02;;;6.22;;
72325;SDS011;60278;47.980;18.780;2022-08-19T02:58:01;12.23;;;6.63;;
72325;SDS011;60278;47.980;18.780;2022-08-19T03:01:32;14.50;;;6.70;;
72325;SDS011;60278;47.980;18.780;2022-08-19T03:05:04;9.38;;;6.75;;
72325;SDS011;60278;47.980;18.780;2022-08-19T03:08:40;11.63;;;6.30;;
72325;SDS011;60278;47.980;18.780;2022-08-19T03:12:12;14.13;;;5.78;;
72325;SDS011;60278;47.980;18.780;2022-08-19T03:15:44;12.27;;;6.53;;
72325;SDS011;60278;47.980;18.780;2022-08-19T03:19:17;9.50;;;6.05;;
72325;SDS011;60278;47.980;18.780;2022-08-19T03:22:51;11.50;;;6.45;;
72325;SDS011;60278;47.980;18.780;2022-08-19T03:26:22;11.63;;;6.32;;
72325;SDS011;60278;47.980;18.780;2022-08-19T03:29:53;13.57;;;6.23;;
72325;SDS011;60278;47.980;18.780;2022-08-19T03:33:25;11.18;;;6.93;;
72325;SDS011;60278;47.980;18.780;2022-08-19T03:36:59;11.32;;;6.10;;
72325;SDS011;60278;47.980;18.780;2022-08-19T03:40:36;10.52;;;6.28;;
72325;SDS011;60278;47.980;18.780;2022-08-19T03:44:07;11.60;;;7.00;;
72325;SDS011;60278;47.980;18.780;2022-08-19T03:47:39;12.32;;;6.22;;
72325;SDS011;60278;47.980;18.780;2022-08-19T03:51:17;12.93;;;6.63;;
72325;SDS011;60278;47.980;18.780;2022-08-19T03:54:51;10.27;;;6.93;;
72325;SDS011;60278;47.980;18.780;2022-08-19T03:58:22;12.47;;;6.33;;
72325;SDS011;60278;47.980;18.780;2022-08-19T04:01:57;12.90;;;6.22;;
72325;SDS011;60278;47.980;18.780;2022-08-19T04:05:30;12.15;;;6.65;;
72325;SDS011;60278;47.980;18.780;2022-08-19T04:09:02;14.88;;;6.93;;
72325;SDS011;60278;47.980;18.780;2022-08-19T04:12:35;10.47;;;6.33;;
72325;SDS011;60278;47.980;18.780;2022-08-19T04:16:07;12.32;;;6.10;;
72325;SDS011;60278;47.980;18.780;2022-08-19T04:19:39;11.40;;;6.40;;
72325;SDS011;60278;47.980;18.780;2022-08-19T04:23:12;13.25;;;6.32;;
72325;SDS011;60278;47.980;18.780;2022-08-19T04:26:44;10.97;;;6.60;;
72325;SDS011;60278;47.980;18.780;2022-08-19T04:30:16;9.27;;;6.20;;
72325;SDS011;60278;47.980;18.780;2022-08-19T04:33:48;9.05;;;6.07;;
72325;SDS011;60278;47.980;18.780;2022-08-19T04:37:19;14.10;;;6.18;;
72325;SDS011;60278;47.980;18.780;2022-08-19T04:40:50;14.90;;;6.80;;
72325;SDS011;60278;47.980;18.780;2022-08-19T04:44:41;12.43;;;6.20;;
72325;SDS011;60278;47.980;18.780;2022-08-19T04:48:12;11.13;;;6.30;;
72325;SDS011;60278;47.980;18.780;2022-08-19T04:51:44;11.53;;;6.57;;
72325;SDS011;60278;47.980;18.780;2022-08-19T04:55:18;8.87;;;6.17;;
72325;SDS011;60278;47.980;18.780;2022-08-19T04:58:49;13.05;;;6.63;;
72325;SDS011;60278;47.980;18.780;2022-08-19T05:02:23;12.70;;;6.03;;
72325;SDS011;60278;47.980;18.780;2022-08-19T05:05:55;14.05;;;6.18;;
72325;SDS011;60278;47.980;18.780;2022-08-19T05:09:26;10.00;;;6.47;;
72325;SDS011;60278;47.980;18.780;2022-08-19T05:12:57;10.98;;;6.07;;
72325;SDS011;60278;47.980;18.780;2022-08-19T05:16:28;11.27;;;6.78;;
72325;SDS011;60278;47.980;18.780;2022-08-19T05:19:59;10.77;;;6.07;;
72325;SDS011;60278;47.980;18.780;2022-08-19T05:23:49;9.98;;;6.15;;
72325;SDS011;60278;47.980;18.780;2022-08-19T05:27:20;9.63;;;5.90;;
72325;SDS011;60278;47.980;18.780;2022-08-19T05:30:51;12.25;;;6.05;;
72325;SDS011;60278;47.980;18.780;2022-08-19T05:34:23;34.47;;;6.97;;
72325;SDS011;60278;47.980;18.780;2022-08-19T05:37:56;12.77;;;6.20;;
72325;SDS011;60278;47.980;18.780;2022-08-19T05:41:27;8.85;;;6.15;;
72325;SDS011;60278;47.980;18.780;2022-08-19T05:45:00;13.75;;;5.85;;
72325;SDS011;60278;47.980;18.780;2022-08-19T05:48:33;8.83;;;5.13;;
72325;SDS011;60278;47.980;18.780;2022-08-19T05:52:06;13.65;;;5.80;;
72325;SDS011;60278;47.980;18.780;2022-08-19T05:55:39;14.38;;;5.85;;
72325;SDS011;60278;47.980;18.780;2022-08-19T05:59:10;8.40;;;5.28;;
72325;SDS011;60278;47.980;18.780;2022-08-19T06:02:41;11.60;;;5.60;;
72325;SDS011;60278;47.980;18.780;2022-08-19T06:06:13;9.70;;;5.63;;
72325;SDS011;60278;47.980;18.780;2022-08-19T06:09:46;14.68;;;5.63;;
72325;SDS011;60278;47.980;18.780;2022-08-19T06:13:17;11.85;;;5.72;;
72325;SDS011;60278;47.980;18.780;2022-08-19T06:16:49;11.43;;;5.57;;
72325;SDS011;60278;47.980;18.780;2022-08-19T06:20:23;10.97;;;4.90;;
72325;SDS011;60278;47.980;18.780;2022-08-19T06:23:56;10.05;;;4.90;;
72325;SDS011;60278;47.980;18.780;2022-08-19T06:27:28;10.13;;;5.43;;
72325;SDS011;60278;47.980;18.780;2022-08-19T06:31:05;10.82;;;5.30;;
72325;SDS011;60278;47.980;18.780;2022-08-19T06:34:36;9.33;;;5.23;;
72325;SDS011;60278;47.980;18.780;2022-08-19T06:38:07;10.40;;;5.37;;
72325;SDS011;60278;47.980;18.780;2022-08-19T06:41:41;8.95;;;5.40;;
72325;SDS011;60278;47.980;18.780;2022-08-19T06:45:21;17.08;;;5.20;;
72325;SDS011;60278;47.980;18.780;2022-08-19T06:48:54;10.05;;;5.28;;
72325;SDS011;60278;47.980;18.780;2022-08-19T06:52:25;12.30;;;6.10;;
72325;SDS011;60278;47.980;18.780;2022-08-19T06:55:56;11.40;;;5.00;;
72325;SDS011;60278;47.980;18.780;2022-08-19T06:59:31;10.13;;;5.53;;
72325;SDS011;60278;47.980;18.780;2022-08-19T07:03:05;10.15;;;5.45;;
72325;SDS011;60278;47.980;18.780;2022-08-19T07:06:36;13.20;;;5.18;;
72325;SDS011;60278;47.980;18.780;2022-08-19T07:10:07;9.80;;;5.37;;
72325;SDS011;60278;47.980;18.780;2022-08-19T07:13:39;8.18;;;5.20;;
72325;SDS011;60278;47.980;18.780;2022-08-19T07:17:13;14.68;;;5.13;;
72325;SDS011;60278;47.980;18.780;2022-08-19T07:20:45;7.63;;;4.80;;
72325;SDS011;60278;47.980;18.780;2022-08-19T07:24:16;7.35;;;4.68;;
72325;SDS011;60278;47.980;18.780;2022-08-19T07:27:50;11.30;;;4.93;;
72325;SDS011;60278;47.980;18.780;2022-08-19T07:31:22;8.32;;;4.30;;
72325;SDS011;60278;47.980;18.780;2022-08-19T07:34:55;9.18;;;4.50;;
72325;SDS011;60278;47.980;18.780;2022-08-19T07:38:27;7.97;;;4.53;;
72325;SDS011;60278;47.980;18.780;2022-08-19T07:41:58;8.73;;;5.03;;
72325;SDS011;60278;47.980;18.780;2022-08-19T07:45:32;8.33;;;4.87;;
72325;SDS011;60278;47.980;18.780;2022-08-19T07:49:04;8.73;;;4.40;;
72325;SDS011;60278;47.980;18.780;2022-08-19T07:52:36;9.57;;;4.50;;
72325;SDS011;60278;47.980;18.780;2022-08-19T07:56:09;11.48;;;4.53;;
72325;SDS011;60278;47.980;18.780;2022-08-19T07:59:40;7.83;;;4.30;;
72325;SDS011;60278;47.980;18.780;2022-08-19T08:03:12;8.20;;;4.28;;
72325;SDS011;60278;47.980;18.780;2022-08-19T08:06:45;11.27;;;4.55;;
72325;SDS011;60278;47.980;18.780;2022-08-19T08:10:34;9.05;;;3.90;;
72325;SDS011;60278;47.980;18.780;2022-08-19T08:14:06;7.33;;;4.13;;
72325;SDS011;60278;47.980;18.780;2022-08-19T08:17:37;6.38;;;4.25;;
72325;SDS011;60278;47.980;18.780;2022-08-19T08:21:09;9.32;;;4.78;;
72325;SDS011;60278;47.980;18.780;2022-08-19T08:24:40;8.57;;;4.87;;
72325;SDS011;60278;47.980;18.780;2022-08-19T08:28:11;13.87;;;4.73;;
72325;SDS011;60278;47.980;18.780;2022-08-19T08:31:43;14.82;;;5.55;;
72325;SDS011;60278;47.980;18.780;2022-08-19T08:35:16;8.63;;;4.05;;
72325;SDS011;60278;47.980;18.780;2022-08-19T08:38:50;8.20;;;4.33;;
72325;SDS011;60278;47.980;18.780;2022-08-19T08:42:27;6.97;;;4.10;;
72325;SDS011;60278;47.980;18.780;2022-08-19T08:46:19;10.52;;;3.80;;
72325;SDS011;60278;47.980;18.780;2022-08-19T08:50:39;7.93;;;3.80;;
72325;SDS011;60278;47.980;18.780;2022-08-19T08:54:13;10.38;;;4.47;;
72325;SDS011;60278;47.980;18.780;2022-08-19T09:01:19;9.80;;;4.13;;
72325;SDS011;60278;47.980;18.780;2022-08-19T09:04:51;8.18;;;3.90;;
72325;SDS011;60278;47.980;18.780;2022-08-19T09:15:54;9.07;;;4.40;;
72325;SDS011;60278;47.980;18.780;2022-08-19T09:19:31;7.28;;;4.40;;
72325;SDS011;60278;47.980;18.780;2022-08-19T09:23:03;7.82;;;4.72;;
72325;SDS011;60278;47.980;18.780;2022-08-19T09:26:35;10.27;;;4.63;;
72325;SDS011;60278;47.980;18.780;2022-08-19T09:30:06;14.47;;;4.80;;
72325;SDS011;60278;47.980;18.780;2022-08-19T09:33:38;10.47;;;4.27;;
72325;SDS011;60278;47.980;18.780;2022-08-19T09:37:09;9.90;;;4.43;;
72325;SDS011;60278;47.980;18.780;2022-08-19T09:40:41;12.13;;;4.43;;
72325;SDS011;60278;47.980;18.780;2022-08-19T09:44:12;6.70;;;4.35;;
72325;SDS011;60278;47.980;18.780;2022-08-19T09:47:43;9.80;;;4.37;;
72325;SDS011;60278;47.980;18.780;2022-08-19T09:51:16;10.70;;;4.47;;
72325;SDS011;60278;47.980;18.780;2022-08-19T09:54:51;14.77;;;4.47;;
72325;SDS011;60278;47.980;18.780;2022-08-19T09:58:23;7.40;;;4.28;;
72325;SDS011;60278;47.980;18.780;2022-08-19T10:01:58;9.05;;;4.40;;
72325;SDS011;60278;47.980;18.780;2022-08-19T10:05:29;8.20;;;4.20;;
72325;SDS011;60278;47.980;18.780;2022-08-19T10:09:18;10.30;;;4.03;;
72325;SDS011;60278;47.980;18.780;2022-08-19T10:12:49;7.88;;;4.35;;
72325;SDS011;60278;47.980;18.780;2022-08-19T10:16:21;7.50;;;4.50;;
72325;SDS011;60278;47.980;18.780;2022-08-19T10:19:53;7.10;;;3.95;;
72325;SDS011;60278;47.980;18.780;2022-08-19T10:23:25;6.47;;;4.03;;
72325;SDS011;60278;47.980;18.780;2022-08-19T10:26:56;13.75;;;3.67;;
72325;SDS011;60278;47.980;18.780;2022-08-19T10:30:27;7.70;;;3.85;;
72325;SDS011;60278;47.980;18.780;2022-08-19T10:33:59;9.90;;;3.80;;
72325;SDS011;60278;47.980;18.780;2022-08-19T10:37:31;8.48;;;3.88;;
72325;SDS011;60278;47.980;18.780;2022-08-19T10:41:11;9.27;;;4.47;;
72325;SDS011;60278;47.980;18.780;2022-08-19T10:44:44;7.63;;;3.90;;
72325;SDS011;60278;47.980;18.780;2022-08-19T10:48:17;9.23;;;4.57;;
72325;SDS011;60278;47.980;18.780;2022-08-19T10:51:48;11.15;;;3.67;;
72325;SDS011;60278;47.980;18.780;2022-08-19T10:55:37;9.00;;;3.60;;
72325;SDS011;60278;47.980;18.780;2022-08-19T10:59:28;7.43;;;4.03;;
72325;SDS011;60278;47.980;18.780;2022-08-19T11:03:00;11.38;;;3.83;;
72325;SDS011;60278;47.980;18.780;2022-08-19T11:06:31;8.35;;;4.25;;
72325;SDS011;60278;47.980;18.780;2022-08-19T11:10:03;8.63;;;3.65;;
72325;SDS011;60278;47.980;18.780;2022-08-19T11:13:36;13.93;;;3.90;;
72325;SDS011;60278;47.980;18.780;2022-08-19T11:17:08;10.13;;;3.45;;
72325;SDS011;60278;47.980;18.780;2022-08-19T11:20:41;10.50;;;3.70;;
72325;SDS011;60278;47.980;18.780;2022-08-19T11:24:22;10.48;;;4.00;;
72325;SDS011;60278;47.980;18.780;2022-08-19T11:27:55;14.17;;;3.90;;
72325;SDS011;60278;47.980;18.780;2022-08-19T11:31:27;7.00;;;3.40;;
72325;SDS011;60278;47.980;18.780;2022-08-19T11:35:01;9.82;;;4.07;;
72325;SDS011;60278;47.980;18.780;2022-08-19T11:38:32;7.53;;;3.45;;
72325;SDS011;60278;47.980;18.780;2022-08-19T11:42:05;8.57;;;3.53;;
72325;SDS011;60278;47.980;18.780;2022-08-19T11:45:57;8.73;;;4.27;;
72325;SDS011;60278;47.980;18.780;2022-08-19T11:49:28;9.25;;;3.95;;
72325;SDS011;60278;47.980;18.780;2022-08-19T11:52:59;9.32;;;3.88;;
72325;SDS011;60278;47.980;18.780;2022-08-19T11:56:31;8.77;;;3.67;;
72325;SDS011;60278;47.980;18.780;2022-08-19T12:00:03;7.33;;;3.30;;
72325;SDS011;60278;47.980;18.780;2022-08-19T12:03:37;9.10;;;4.00;;
72325;SDS011;60278;47.980;18.780;2022-08-19T12:07:08;11.07;;;4.20;;
72325;SDS011;60278;47.980;18.780;2022-08-19T12:10:39;9.75;;;4.03;;
72325;SDS011;60278;47.980;18.780;2022-08-19T12:14:12;13.13;;;4.07;;
72325;SDS011;60278;47.980;18.780;2022-08-19T12:17:44;13.27;;;3.93;;
72325;SDS011;60278;47.980;18.780;2022-08-19T12:21:16;10.13;;;3.50;;
72325;SDS011;60278;47.980;18.780;2022-08-19T12:24:51;9.05;;;3.75;;
72325;SDS011;60278;47.980;18.780;2022-08-19T12:28:24;9.35;;;3.83;;
72325;SDS011;60278;47.980;18.780;2022-08-19T12:31:56;11.30;;;3.67;;
72325;SDS011;60278;47.980;18.780;2022-08-19T12:35:31;9.67;;;3.93;;
72325;SDS011;60278;47.980;18.780;2022-08-19T12:39:02;8.90;;;4.15;;
72325;SDS011;60278;47.980;18.780;2022-08-19T12:42:34;9.88;;;3.90;;
72325;SDS011;60278;47.980;18.780;2022-08-19T12:46:05;10.13;;;4.15;;
72325;SDS011;60278;47.980;18.780;2022-08-19T12:49:37;8.00;;;3.70;;
72325;SDS011;60278;47.980;18.780;2022-08-19T12:53:10;8.00;;;3.90;;
72325;SDS011;60278;47.980;18.780;2022-08-19T12:56:41;8.50;;;4.30;;
72325;SDS011;60278;47.980;18.780;2022-08-19T13:00:15;9.95;;;3.75;;
72325;SDS011;60278;47.980;18.780;2022-08-19T13:03:48;8.27;;;3.73;;
72325;SDS011;60278;47.980;18.780;2022-08-19T13:07:19;9.73;;;4.07;;
72325;SDS011;60278;47.980;18.780;2022-08-19T13:10:50;10.63;;;4.32;;
72325;SDS011;60278;47.980;18.780;2022-08-19T13:14:21;13.32;;;3.88;;
72325;SDS011;60278;47.980;18.780;2022-08-19T13:17:52;13.35;;;3.65;;
72325;SDS011;60278;47.980;18.780;2022-08-19T13:21:26;9.30;;;3.80;;
72325;SDS011;60278;47.980;18.780;2022-08-19T13:24:58;12.80;;;3.67;;
72325;SDS011;60278;47.980;18.780;2022-08-19T13:28:29;10.52;;;4.18;;
72325;SDS011;60278;47.980;18.780;2022-08-19T13:32:19;10.63;;;4.03;;
72325;SDS011;60278;47.980;18.780;2022-08-19T13:36:09;14.80;;;4.35;;
72325;SDS011;60278;47.980;18.780;2022-08-19T13:39:40;9.73;;;3.80;;
72325;SDS011;60278;47.980;18.780;2022-08-19T13:43:11;32.72;;;4.57;;
72325;SDS011;60278;47.980;18.780;2022-08-19T13:46:42;26.02;;;3.88;;
72325;SDS011;60278;47.980;18.780;2022-08-19T13:50:17;11.35;;;3.72;;
72325;SDS011;60278;47.980;18.780;2022-08-19T13:53:50;11.85;;;3.40;;
72325;SDS011;60278;47.980;18.780;2022-08-19T13:57:22;18.70;;;4.10;;
72325;SDS011;60278;47.980;18.780;2022-08-19T14:00:53;13.30;;;3.80;;
72325;SDS011;60278;47.980;18.780;2022-08-19T14:04:24;28.25;;;3.90;;
72325;SDS011;60278;47.980;18.780;2022-08-19T14:07:55;30.40;;;4.70;;
72325;SDS011;60278;47.980;18.780;2022-08-19T14:11:27;24.73;;;4.03;;
72325;SDS011;60278;47.980;18.780;2022-08-19T14:14:59;12.82;;;4.32;;
72325;SDS011;60278;47.980;18.780;2022-08-19T14:18:30;16.98;;;3.90;;
72325;SDS011;60278;47.980;18.780;2022-08-19T14:22:02;12.82;;;4.30;;
72325;SDS011;60278;47.980;18.780;2022-08-19T14:25:33;12.97;;;3.97;;
72325;SDS011;60278;47.980;18.780;2022-08-19T14:29:04;12.23;;;4.33;;
72325;SDS011;60278;47.980;18.780;2022-08-19T14:32:35;15.30;;;3.20;;
72325;SDS011;60278;47.980;18.780;2022-08-19T14:36:06;15.90;;;3.70;;
72325;SDS011;60278;47.980;18.780;2022-08-19T14:39:37;13.88;;;3.60;;
72325;SDS011;60278;47.980;18.780;2022-08-19T14:43:10;20.63;;;4.27;;
72325;SDS011;60278;47.980;18.780;2022-08-19T14:46:41;13.57;;;3.25;;
72325;SDS011;60278;47.980;18.780;2022-08-19T14:50:12;10.52;;;3.08;;
72325;SDS011;60278;47.980;18.780;2022-08-19T14:53:44;9.45;;;3.08;;
72325;SDS011;60278;47.980;18.780;2022-08-19T14:57:15;12.83;;;2.70;;
72325;SDS011;60278;47.980;18.780;2022-08-19T15:00:46;17.77;;;3.53;;
72325;SDS011;60278;47.980;18.780;2022-08-19T15:04:18;15.10;;;2.85;;
72325;SDS011;60278;47.980;18.780;2022-08-19T15:07:49;17.60;;;3.35;;
72325;SDS011;60278;47.980;18.780;2022-08-19T15:11:21;10.60;;;2.50;;
72325;SDS011;60278;47.980;18.780;2022-08-19T15:14:54;14.50;;;2.60;;
72325;SDS011;60278;47.980;18.780;2022-08-19T15:18:25;15.05;;;2.50;;
72325;SDS011;60278;47.980;18.780;2022-08-19T15:21:56;9.10;;;2.42;;
72325;SDS011;60278;47.980;18.780;2022-08-19T15:25:28;13.07;;;2.70;;
72325;SDS011;60278;47.980;18.780;2022-08-19T15:28:59;10.80;;;3.30;;
72325;SDS011;60278;47.980;18.780;2022-08-19T15:32:30;16.10;;;2.30;;
72325;SDS011;60278;47.980;18.780;2022-08-19T15:36:03;14.15;;;3.20;;
72325;SDS011;60278;47.980;18.780;2022-08-19T15:39:35;11.60;;;1.80;;
72325;SDS011;60278;47.980;18.780;2022-08-19T15:43:07;8.70;;;1.98;;
72325;SDS011;60278;47.980;18.780;2022-08-19T15:46:39;11.20;;;2.43;;
72325;SDS011;60278;47.980;18.780;2022-08-19T15:50:13;9.98;;;2.33;;
72325;SDS011;60278;47.980;18.780;2022-08-19T15:53:48;12.85;;;3.00;;
72325;SDS011;60278;47.980;18.780;2022-08-19T15:57:19;17.92;;;2.50;;
72325;SDS011;60278;47.980;18.780;2022-08-19T16:00:53;8.63;;;1.85;;
72325;SDS011;60278;47.980;18.780;2022-08-19T16:04:42;12.80;;;2.00;;
72325;SDS011;60278;47.980;18.780;2022-08-19T16:08:32;12.30;;;2.50;;
72325;SDS011;60278;47.980;18.780;2022-08-19T16:12:04;10.10;;;2.03;;
72325;SDS011;60278;47.980;18.780;2022-08-19T16:15:35;11.70;;;2.20;;
72325;SDS011;60278;47.980;18.780;2022-08-19T16:19:07;12.63;;;2.60;;
72325;SDS011;60278;47.980;18.780;2022-08-19T16:22:39;10.17;;;2.13;;
72325;SDS011;60278;47.980;18.780;2022-08-19T16:26:10;12.00;;;2.50;;
72325;SDS011;60278;47.980;18.780;2022-08-19T16:29:41;11.25;;;2.28;;
72325;SDS011;60278;47.980;18.780;2022-08-19T16:33:12;13.45;;;2.45;;
72325;SDS011;60278;47.980;18.780;2022-08-19T16:36:43;10.77;;;2.13;;
72325;SDS011;60278;47.980;18.780;2022-08-19T16:40:14;14.60;;;2.97;;
72325;SDS011;60278;47.980;18.780;2022-08-19T16:43:46;9.35;;;2.72;;
72325;SDS011;60278;47.980;18.780;2022-08-19T16:47:18;13.13;;;2.22;;
72325;SDS011;60278;47.980;18.780;2022-08-19T16:50:49;15.93;;;2.60;;
72325;SDS011;60278;47.980;18.780;2022-08-19T16:54:20;13.23;;;2.77;;
72325;SDS011;60278;47.980;18.780;2022-08-19T16:57:51;9.00;;;2.25;;
72325;SDS011;60278;47.980;18.780;2022-08-19T17:01:22;13.68;;;2.65;;
72325;SDS011;60278;47.980;18.780;2022-08-19T17:04:53;13.63;;;2.95;;
72325;SDS011;60278;47.980;18.780;2022-08-19T17:08:25;14.53;;;2.87;;
72325;SDS011;60278;47.980;18.780;2022-08-19T17:11:56;15.00;;;3.47;;
72325;SDS011;60278;47.980;18.780;2022-08-19T17:15:28;14.85;;;2.95;;
72325;SDS011;60278;47.980;18.780;2022-08-19T17:19:03;13.18;;;2.63;;
72325;SDS011;60278;47.980;18.780;2022-08-19T17:22:36;13.52;;;3.03;;
72325;SDS011;60278;47.980;18.780;2022-08-19T17:26:07;13.00;;;2.57;;
72325;SDS011;60278;47.980;18.780;2022-08-19T17:29:38;15.05;;;2.83;;
72325;SDS011;60278;47.980;18.780;2022-08-19T17:33:09;12.55;;;2.80;;
72325;SDS011;60278;47.980;18.780;2022-08-19T17:36:40;10.57;;;2.80;;
72325;SDS011;60278;47.980;18.780;2022-08-19T17:40:12;12.30;;;3.15;;
72325;SDS011;60278;47.980;18.780;2022-08-19T17:43:44;10.40;;;2.87;;
72325;SDS011;60278;47.980;18.780;2022-08-19T17:47:15;11.80;;;2.87;;
72325;SDS011;60278;47.980;18.780;2022-08-19T17:50:46;12.60;;;3.00;;
72325;SDS011;60278;47.980;18.780;2022-08-19T17:54:17;7.97;;;2.30;;
72325;SDS011;60278;47.980;18.780;2022-08-19T17:57:49;10.90;;;3.07;;
72325;SDS011;60278;47.980;18.780;2022-08-19T18:01:21;12.33;;;2.90;;
72325;SDS011;60278;47.980;18.780;2022-08-19T18:04:52;16.27;;;3.70;;
72325;SDS011;60278;47.980;18.780;2022-08-19T18:08:23;20.85;;;3.47;;
72325;SDS011;60278;47.980;18.780;2022-08-19T18:11:54;11.23;;;3.55;;
72325;SDS011;60278;47.980;18.780;2022-08-19T18:15:27;14.03;;;3.70;;
72325;SDS011;60278;47.980;18.780;2022-08-19T18:18:58;14.05;;;3.75;;
72325;SDS011;60278;47.980;18.780;2022-08-19T18:22:31;9.77;;;3.78;;
72325;SDS011;60278;47.980;18.780;2022-08-19T18:26:06;14.18;;;3.42;;
72325;SDS011;60278;47.980;18.780;2022-08-19T18:29:37;15.03;;;2.90;;
72325;SDS011;60278;47.980;18.780;2022-08-19T18:33:09;12.32;;;3.15;;
72325;SDS011;60278;47.980;18.780;2022-08-19T18:36:44;11.65;;;3.53;;
72325;SDS011;60278;47.980;18.780;2022-08-19T18:40:16;11.77;;;3.13;;
72325;SDS011;60278;47.980;18.780;2022-08-19T18:44:08;15.53;;;3.97;;
72325;SDS011;60278;47.980;18.780;2022-08-19T18:47:58;11.98;;;3.88;;
72325;SDS011;60278;47.980;18.780;2022-08-19T18:51:47;16.02;;;4.20;;
72325;SDS011;60278;47.980;18.780;2022-08-19T18:55:20;12.97;;;3.43;;
72325;SDS011;60278;47.980;18.780;2022-08-19T18:58:53;13.57;;;3.57;;
72325;SDS011;60278;47.980;18.780;2022-08-19T19:02:25;10.23;;;3.05;;
72325;SDS011;60278;47.980;18.780;2022-08-19T19:05:57;9.88;;;3.53;;
72325;SDS011;60278;47.980;18.780;2022-08-19T19:09:29;11.05;;;3.53;;
72325;SDS011;60278;47.980;18.780;2022-08-19T19:13:00;17.90;;;3.40;;
72325;SDS011;60278;47.980;18.780;2022-08-19T19:16:31;14.55;;;3.22;;
72325;SDS011;60278;47.980;18.780;2022-08-19T19:20:03;10.48;;;4.63;;
72325;SDS011;60278;47.980;18.780;2022-08-19T19:23:35;14.40;;;4.50;;
72325;SDS011;60278;47.980;18.780;2022-08-19T19:27:10;12.20;;;3.87;;
72325;SDS011;60278;47.980;18.780;2022-08-19T19:30:43;16.13;;;4.43;;
72325;SDS011;60278;47.980;18.780;2022-08-19T19:34:14;13.00;;;3.95;;
72325;SDS011;60278;47.980;18.780;2022-08-19T19:37:46;13.77;;;3.70;;
72325;SDS011;60278;47.980;18.780;2022-08-19T19:41:22;16.83;;;4.53;;
72325;SDS011;60278;47.980;18.780;2022-08-19T19:44:54;14.90;;;4.10;;
72325;SDS011;60278;47.980;18.780;2022-08-19T19:48:26;10.95;;;4.82;;
72325;SDS011;60278;47.980;18.780;2022-08-19T19:51:58;18.52;;;4.82;;
72325;SDS011;60278;47.980;18.780;2022-08-19T19:55:29;13.60;;;4.37;;
72325;SDS011;60278;47.980;18.780;2022-08-19T19:59:00;20.30;;;5.10;;
72325;SDS011;60278;47.980;18.780;2022-08-19T20:02:33;14.02;;;5.00;;
72325;SDS011;60278;47.980;18.780;2022-08-19T20:06:04;20.48;;;6.40;;
72325;SDS011;60278;47.980;18.780;2022-08-19T20:09:37;13.33;;;4.97;;
72325;SDS011;60278;47.980;18.780;2022-08-19T20:13:08;17.15;;;7.28;;
72325;SDS011;60278;47.980;18.780;2022-08-19T20:16:40;17.00;;;5.72;;
72325;SDS011;60278;47.980;18.780;2022-08-19T20:20:14;15.67;;;6.03;;
72325;SDS011;60278;47.980;18.780;2022-08-19T20:23:46;19.20;;;5.70;;
72325;SDS011;60278;47.980;18.780;2022-08-19T20:27:18;16.48;;;5.80;;
72325;SDS011;60278;47.980;18.780;2022-08-19T20:30:49;11.30;;;5.20;;
72325;SDS011;60278;47.980;18.780;2022-08-19T20:34:21;17.80;;;5.87;;
72325;SDS011;60278;47.980;18.780;2022-08-19T20:37:52;25.67;;;5.83;;
72325;SDS011;60278;47.980;18.780;2022-08-19T20:41:24;16.48;;;6.18;;
72325;SDS011;60278;47.980;18.780;2022-08-19T20:44:55;15.43;;;5.63;;
72325;SDS011;60278;47.980;18.780;2022-08-19T20:48:27;18.07;;;5.30;;
72325;SDS011;60278;47.980;18.780;2022-08-19T20:51:59;18.58;;;6.00;;
72325;SDS011;60278;47.980;18.780;2022-08-19T20:55:30;18.55;;;5.78;;
72325;SDS011;60278;47.980;18.780;2022-08-19T20:59:01;18.67;;;6.50;;
72325;SDS011;60278;47.980;18.780;2022-08-19T21:02:34;18.17;;;6.03;;